sensor_id;sensor_type;location;lat;lon;timestamp;P1;durP1;ratioP1;P2;durP2;ratioP2
7025;SDS011;3554;42.132;24.786;2022-08-19T00:00:49;8.87;;;8.30;;
7025;SDS011;3554;42.132;24.786;2022-08-19T00:03:16;8.97;;;8.33;;
7025;SDS011;3554;42.132;24.786;2022-08-19T00:05:43;9.33;;;8.50;;
7025;SDS011;3554;42.132;24.786;2022-08-19T00:08:10;9.10;;;8.20;;
7025;SDS011;3554;42.132;24.786;2022-08-19T00:10:39;8.67;;;8.13;;
7025;SDS011;3554;42.132;24.786;2022-08-19T00:13:05;8.33;;;7.67;;
7025;SDS011;3554;42.132;24.786;2022-08-19T00:15:32;9.23;;;8.47;;
7025;SDS011;3554;42.132;24.786;2022-08-19T00:17:59;9.40;;;8.47;;
7025;SDS011;3554;42.132;24.786;2022-08-19T00:20:26;9.90;;;9.03;;
7025;SDS011;3554;42.132;24.786;2022-08-19T00:22:53;9.40;;;8.80;;
7025;SDS011;3554;42.132;24.786;2022-08-19T00:25:20;9.53;;;8.83;;
7025;SDS011;3554;42.132;24.786;2022-08-19T00:27:48;9.87;;;9.10;;
7025;SDS011;3554;42.132;24.786;2022-08-19T00:30:15;9.23;;;8.60;;
7025;SDS011;3554;42.132;24.786;2022-08-19T00:32:42;10.03;;;9.23;;
7025;SDS011;3554;42.132;24.786;2022-08-19T00:35:09;9.70;;;8.77;;
7025;SDS011;3554;42.132;24.786;2022-08-19T00:37:36;9.60;;;8.97;;
7025;SDS011;3554;42.132;24.786;2022-08-19T00:40:08;8.50;;;7.90;;
7025;SDS011;3554;42.132;24.786;2022-08-19T00:42:37;9.40;;;8.50;;
7025;SDS011;3554;42.132;24.786;2022-08-19T00:45:09;8.97;;;8.47;;
7025;SDS011;3554;42.132;24.786;2022-08-19T00:47:39;9.80;;;9.10;;
7025;SDS011;3554;42.132;24.786;2022-08-19T00:50:06;9.60;;;8.63;;
7025;SDS011;3554;42.132;24.786;2022-08-19T00:52:37;10.00;;;9.33;;
7025;SDS011;3554;42.132;24.786;2022-08-19T00:55:10;10.53;;;9.40;;
7025;SDS011;3554;42.132;24.786;2022-08-19T00:57:40;11.67;;;10.43;;
7025;SDS011;3554;42.132;24.786;2022-08-19T01:00:13;9.93;;;9.20;;
7025;SDS011;3554;42.132;24.786;2022-08-19T01:02:43;10.63;;;9.73;;
7025;SDS011;3554;42.132;24.786;2022-08-19T01:05:11;11.43;;;10.30;;
7025;SDS011;3554;42.132;24.786;2022-08-19T01:07:43;11.47;;;10.43;;
7025;SDS011;3554;42.132;24.786;2022-08-19T01:10:12;10.93;;;10.07;;
7025;SDS011;3554;42.132;24.786;2022-08-19T01:12:43;11.93;;;11.00;;
7025;SDS011;3554;42.132;24.786;2022-08-19T01:15:13;10.43;;;9.83;;
7025;SDS011;3554;42.132;24.786;2022-08-19T01:17:43;11.03;;;10.10;;
7025;SDS011;3554;42.132;24.786;2022-08-19T01:20:13;10.43;;;9.77;;
7025;SDS011;3554;42.132;24.786;2022-08-19T01:22:44;10.60;;;9.77;;
7025;SDS011;3554;42.132;24.786;2022-08-19T01:25:13;10.77;;;10.07;;
7025;SDS011;3554;42.132;24.786;2022-08-19T01:27:44;10.23;;;9.63;;
7025;SDS011;3554;42.132;24.786;2022-08-19T01:30:13;10.93;;;10.03;;
7025;SDS011;3554;42.132;24.786;2022-08-19T01:32:42;11.00;;;9.90;;
7025;SDS011;3554;42.132;24.786;2022-08-19T01:35:09;9.93;;;9.07;;
7025;SDS011;3554;42.132;24.786;2022-08-19T01:37:46;11.03;;;9.93;;
7025;SDS011;3554;42.132;24.786;2022-08-19T01:40:14;11.63;;;9.87;;
7025;SDS011;3554;42.132;24.786;2022-08-19T01:42:42;10.03;;;9.33;;
7025;SDS011;3554;42.132;24.786;2022-08-19T01:45:09;9.53;;;9.03;;
7025;SDS011;3554;42.132;24.786;2022-08-19T01:47:36;26.03;;;10.87;;
7025;SDS011;3554;42.132;24.786;2022-08-19T01:50:04;10.60;;;9.83;;
7025;SDS011;3554;42.132;24.786;2022-08-19T01:52:34;11.03;;;9.70;;
7025;SDS011;3554;42.132;24.786;2022-08-19T01:55:03;10.80;;;9.80;;
7025;SDS011;3554;42.132;24.786;2022-08-19T01:57:31;9.80;;;9.10;;
7025;SDS011;3554;42.132;24.786;2022-08-19T01:59:58;10.40;;;9.70;;
7025;SDS011;3554;42.132;24.786;2022-08-19T02:02:28;9.80;;;9.17;;
7025;SDS011;3554;42.132;24.786;2022-08-19T02:04:54;8.60;;;7.87;;
7025;SDS011;3554;42.132;24.786;2022-08-19T02:07:21;11.10;;;9.93;;
7025;SDS011;3554;42.132;24.786;2022-08-19T02:09:49;11.13;;;10.17;;
7025;SDS011;3554;42.132;24.786;2022-08-19T02:12:17;10.63;;;9.80;;
7025;SDS011;3554;42.132;24.786;2022-08-19T02:14:44;11.23;;;10.43;;
7025;SDS011;3554;42.132;24.786;2022-08-19T02:17:11;9.80;;;8.93;;
7025;SDS011;3554;42.132;24.786;2022-08-19T02:19:38;10.40;;;8.13;;
7025;SDS011;3554;42.132;24.786;2022-08-19T02:22:05;9.23;;;8.70;;
7025;SDS011;3554;42.132;24.786;2022-08-19T02:24:32;8.93;;;8.10;;
7025;SDS011;3554;42.132;24.786;2022-08-19T02:26:59;12.10;;;9.50;;
7025;SDS011;3554;42.132;24.786;2022-08-19T02:29:27;9.67;;;8.70;;
7025;SDS011;3554;42.132;24.786;2022-08-19T02:31:54;9.70;;;8.90;;
7025;SDS011;3554;42.132;24.786;2022-08-19T02:34:21;8.40;;;7.73;;
7025;SDS011;3554;42.132;24.786;2022-08-19T02:36:47;9.10;;;8.20;;
7025;SDS011;3554;42.132;24.786;2022-08-19T02:39:14;11.90;;;9.67;;
7025;SDS011;3554;42.132;24.786;2022-08-19T02:41:40;11.07;;;9.63;;
7025;SDS011;3554;42.132;24.786;2022-08-19T02:44:07;10.37;;;9.57;;
7025;SDS011;3554;42.132;24.786;2022-08-19T02:46:35;8.97;;;8.27;;
7025;SDS011;3554;42.132;24.786;2022-08-19T02:49:03;9.37;;;8.57;;
7025;SDS011;3554;42.132;24.786;2022-08-19T02:51:32;9.50;;;8.67;;
7025;SDS011;3554;42.132;24.786;2022-08-19T02:54:00;9.30;;;8.33;;
7025;SDS011;3554;42.132;24.786;2022-08-19T02:56:28;9.63;;;8.77;;
7025;SDS011;3554;42.132;24.786;2022-08-19T02:58:55;8.03;;;7.33;;
7025;SDS011;3554;42.132;24.786;2022-08-19T03:01:24;9.90;;;8.73;;
7025;SDS011;3554;42.132;24.786;2022-08-19T03:03:58;9.57;;;8.40;;
7025;SDS011;3554;42.132;24.786;2022-08-19T03:06:26;10.67;;;8.70;;
7025;SDS011;3554;42.132;24.786;2022-08-19T03:08:54;9.87;;;8.90;;
7025;SDS011;3554;42.132;24.786;2022-08-19T03:11:22;9.07;;;8.37;;
7025;SDS011;3554;42.132;24.786;2022-08-19T03:13:50;9.77;;;8.97;;
7025;SDS011;3554;42.132;24.786;2022-08-19T03:16:18;10.47;;;9.13;;
7025;SDS011;3554;42.132;24.786;2022-08-19T03:18:46;10.30;;;9.20;;
7025;SDS011;3554;42.132;24.786;2022-08-19T03:21:16;17.17;;;11.40;;
7025;SDS011;3554;42.132;24.786;2022-08-19T03:23:44;11.00;;;9.97;;
7025;SDS011;3554;42.132;24.786;2022-08-19T03:26:11;10.57;;;9.60;;
7025;SDS011;3554;42.132;24.786;2022-08-19T03:28:39;13.77;;;12.40;;
7025;SDS011;3554;42.132;24.786;2022-08-19T03:31:07;16.13;;;11.63;;
7025;SDS011;3554;42.132;24.786;2022-08-19T03:33:36;13.03;;;10.23;;
7025;SDS011;3554;42.132;24.786;2022-08-19T03:36:06;11.63;;;10.47;;
7025;SDS011;3554;42.132;24.786;2022-08-19T03:38:37;9.37;;;8.67;;
7025;SDS011;3554;42.132;24.786;2022-08-19T03:41:06;9.87;;;9.27;;
7025;SDS011;3554;42.132;24.786;2022-08-19T03:43:34;9.67;;;8.67;;
7025;SDS011;3554;42.132;24.786;2022-08-19T03:46:03;10.70;;;9.60;;
7025;SDS011;3554;42.132;24.786;2022-08-19T03:48:32;10.63;;;9.70;;
7025;SDS011;3554;42.132;24.786;2022-08-19T03:50:59;9.90;;;9.30;;
7025;SDS011;3554;42.132;24.786;2022-08-19T03:53:26;13.30;;;11.30;;
7025;SDS011;3554;42.132;24.786;2022-08-19T03:55:55;15.37;;;10.30;;
7025;SDS011;3554;42.132;24.786;2022-08-19T03:58:25;15.07;;;10.57;;
7025;SDS011;3554;42.132;24.786;2022-08-19T04:00:54;18.17;;;10.13;;
7025;SDS011;3554;42.132;24.786;2022-08-19T04:03:21;11.03;;;9.93;;
7025;SDS011;3554;42.132;24.786;2022-08-19T04:05:49;14.30;;;10.37;;
7025;SDS011;3554;42.132;24.786;2022-08-19T04:08:16;11.47;;;9.93;;
7025;SDS011;3554;42.132;24.786;2022-08-19T04:10:45;11.47;;;9.90;;
7025;SDS011;3554;42.132;24.786;2022-08-19T04:13:15;12.67;;;10.17;;
7025;SDS011;3554;42.132;24.786;2022-08-19T04:15:43;11.53;;;10.47;;
7025;SDS011;3554;42.132;24.786;2022-08-19T04:18:11;11.67;;;10.57;;
7025;SDS011;3554;42.132;24.786;2022-08-19T04:20:40;11.17;;;10.33;;
7025;SDS011;3554;42.132;24.786;2022-08-19T04:23:09;13.43;;;9.77;;
7025;SDS011;3554;42.132;24.786;2022-08-19T04:25:36;11.70;;;9.10;;
7025;SDS011;3554;42.132;24.786;2022-08-19T04:28:04;9.70;;;8.80;;
7025;SDS011;3554;42.132;24.786;2022-08-19T04:30:38;10.53;;;9.10;;
7025;SDS011;3554;42.132;24.786;2022-08-19T04:33:06;8.90;;;7.67;;
7025;SDS011;3554;42.132;24.786;2022-08-19T04:35:37;10.03;;;9.00;;
7025;SDS011;3554;42.132;24.786;2022-08-19T04:38:05;10.40;;;8.83;;
7025;SDS011;3554;42.132;24.786;2022-08-19T04:40:32;10.73;;;9.60;;
7025;SDS011;3554;42.132;24.786;2022-08-19T04:43:16;13.67;;;9.87;;
7025;SDS011;3554;42.132;24.786;2022-08-19T04:45:46;9.90;;;9.10;;
7025;SDS011;3554;42.132;24.786;2022-08-19T04:48:13;20.63;;;10.27;;
7025;SDS011;3554;42.132;24.786;2022-08-19T04:50:41;16.33;;;9.93;;
7025;SDS011;3554;42.132;24.786;2022-08-19T04:53:09;25.20;;;10.10;;
7025;SDS011;3554;42.132;24.786;2022-08-19T04:55:40;22.37;;;11.03;;
7025;SDS011;3554;42.132;24.786;2022-08-19T04:58:07;13.20;;;10.40;;
7025;SDS011;3554;42.132;24.786;2022-08-19T05:00:37;11.93;;;10.20;;
7025;SDS011;3554;42.132;24.786;2022-08-19T05:03:05;16.23;;;9.90;;
7025;SDS011;3554;42.132;24.786;2022-08-19T05:05:32;15.43;;;10.57;;
7025;SDS011;3554;42.132;24.786;2022-08-19T05:07:59;20.70;;;10.57;;
7025;SDS011;3554;42.132;24.786;2022-08-19T05:10:26;15.67;;;10.70;;
7025;SDS011;3554;42.132;24.786;2022-08-19T05:12:53;17.73;;;11.03;;
7025;SDS011;3554;42.132;24.786;2022-08-19T05:15:19;24.83;;;11.30;;
7025;SDS011;3554;42.132;24.786;2022-08-19T05:17:46;18.87;;;11.13;;
7025;SDS011;3554;42.132;24.786;2022-08-19T05:20:28;15.87;;;10.47;;
7025;SDS011;3554;42.132;24.786;2022-08-19T05:23:12;24.70;;;10.57;;
7025;SDS011;3554;42.132;24.786;2022-08-19T05:25:40;22.03;;;11.23;;
7025;SDS011;3554;42.132;24.786;2022-08-19T05:28:07;19.07;;;10.23;;
7025;SDS011;3554;42.132;24.786;2022-08-19T05:30:34;14.07;;;9.80;;
7025;SDS011;3554;42.132;24.786;2022-08-19T05:33:01;21.77;;;11.30;;
7025;SDS011;3554;42.132;24.786;2022-08-19T05:35:29;12.93;;;10.10;;
7025;SDS011;3554;42.132;24.786;2022-08-19T05:37:57;20.03;;;9.53;;
7025;SDS011;3554;42.132;24.786;2022-08-19T05:40:23;11.97;;;8.93;;
7025;SDS011;3554;42.132;24.786;2022-08-19T05:42:50;9.60;;;8.33;;
7025;SDS011;3554;42.132;24.786;2022-08-19T05:45:18;11.40;;;9.10;;
7025;SDS011;3554;42.132;24.786;2022-08-19T05:47:46;10.43;;;8.80;;
7025;SDS011;3554;42.132;24.786;2022-08-19T05:50:13;15.80;;;8.27;;
7025;SDS011;3554;42.132;24.786;2022-08-19T05:52:42;10.77;;;8.47;;
7025;SDS011;3554;42.132;24.786;2022-08-19T05:55:10;8.53;;;7.57;;
7025;SDS011;3554;42.132;24.786;2022-08-19T05:57:37;8.20;;;7.53;;
7025;SDS011;3554;42.132;24.786;2022-08-19T06:00:04;8.97;;;8.17;;
7025;SDS011;3554;42.132;24.786;2022-08-19T06:02:34;7.77;;;7.17;;
7025;SDS011;3554;42.132;24.786;2022-08-19T06:05:01;7.13;;;6.63;;
7025;SDS011;3554;42.132;24.786;2022-08-19T06:07:29;8.03;;;7.20;;
7025;SDS011;3554;42.132;24.786;2022-08-19T06:09:57;9.30;;;6.87;;
7025;SDS011;3554;42.132;24.786;2022-08-19T06:12:24;7.47;;;6.63;;
7025;SDS011;3554;42.132;24.786;2022-08-19T06:14:59;7.83;;;7.03;;
7025;SDS011;3554;42.132;24.786;2022-08-19T06:17:26;7.77;;;7.17;;
7025;SDS011;3554;42.132;24.786;2022-08-19T06:19:55;7.17;;;6.67;;
7025;SDS011;3554;42.132;24.786;2022-08-19T06:22:23;10.93;;;7.40;;
7025;SDS011;3554;42.132;24.786;2022-08-19T06:24:50;13.37;;;7.00;;
7025;SDS011;3554;42.132;24.786;2022-08-19T06:27:20;11.37;;;7.47;;
7025;SDS011;3554;42.132;24.786;2022-08-19T06:29:47;7.80;;;6.73;;
7025;SDS011;3554;42.132;24.786;2022-08-19T06:32:17;9.30;;;7.23;;
7025;SDS011;3554;42.132;24.786;2022-08-19T06:34:44;7.93;;;7.10;;
7025;SDS011;3554;42.132;24.786;2022-08-19T06:37:11;8.77;;;7.00;;
7025;SDS011;3554;42.132;24.786;2022-08-19T06:39:39;7.00;;;6.40;;
7025;SDS011;3554;42.132;24.786;2022-08-19T06:42:10;10.03;;;7.40;;
7025;SDS011;3554;42.132;24.786;2022-08-19T06:44:42;9.80;;;7.20;;
7025;SDS011;3554;42.132;24.786;2022-08-19T06:47:11;11.53;;;8.03;;
7025;SDS011;3554;42.132;24.786;2022-08-19T06:49:40;7.70;;;6.97;;
7025;SDS011;3554;42.132;24.786;2022-08-19T06:52:08;8.07;;;7.20;;
7025;SDS011;3554;42.132;24.786;2022-08-19T06:54:36;8.97;;;6.93;;
7025;SDS011;3554;42.132;24.786;2022-08-19T06:57:05;7.43;;;6.90;;
7025;SDS011;3554;42.132;24.786;2022-08-19T06:59:36;7.30;;;6.67;;
7025;SDS011;3554;42.132;24.786;2022-08-19T07:02:05;7.17;;;6.53;;
7025;SDS011;3554;42.132;24.786;2022-08-19T07:04:32;8.40;;;7.17;;
7025;SDS011;3554;42.132;24.786;2022-08-19T07:07:01;6.77;;;6.27;;
7025;SDS011;3554;42.132;24.786;2022-08-19T07:09:34;8.70;;;6.30;;
7025;SDS011;3554;42.132;24.786;2022-08-19T07:12:03;7.80;;;7.17;;
7025;SDS011;3554;42.132;24.786;2022-08-19T07:14:31;6.80;;;6.20;;
7025;SDS011;3554;42.132;24.786;2022-08-19T07:17:00;6.57;;;5.90;;
7025;SDS011;3554;42.132;24.786;2022-08-19T07:19:28;7.47;;;6.73;;
7025;SDS011;3554;42.132;24.786;2022-08-19T07:21:56;8.00;;;7.37;;
7025;SDS011;3554;42.132;24.786;2022-08-19T07:24:25;7.20;;;6.80;;
7025;SDS011;3554;42.132;24.786;2022-08-19T07:26:54;6.93;;;6.43;;
7025;SDS011;3554;42.132;24.786;2022-08-19T07:29:25;7.43;;;6.00;;
7025;SDS011;3554;42.132;24.786;2022-08-19T07:31:53;6.53;;;6.23;;
7025;SDS011;3554;42.132;24.786;2022-08-19T07:34:23;8.87;;;6.50;;
7025;SDS011;3554;42.132;24.786;2022-08-19T07:36:53;7.37;;;6.67;;
7025;SDS011;3554;42.132;24.786;2022-08-19T07:39:22;6.73;;;5.97;;
7025;SDS011;3554;42.132;24.786;2022-08-19T07:41:51;11.00;;;6.63;;
7025;SDS011;3554;42.132;24.786;2022-08-19T07:44:19;14.93;;;6.60;;
7025;SDS011;3554;42.132;24.786;2022-08-19T07:46:48;9.53;;;7.47;;
7025;SDS011;3554;42.132;24.786;2022-08-19T07:49:17;7.53;;;6.90;;
7025;SDS011;3554;42.132;24.786;2022-08-19T07:51:46;6.60;;;6.03;;
7025;SDS011;3554;42.132;24.786;2022-08-19T07:54:15;7.27;;;5.87;;
7025;SDS011;3554;42.132;24.786;2022-08-19T07:56:43;6.60;;;5.90;;
7025;SDS011;3554;42.132;24.786;2022-08-19T07:59:10;6.77;;;6.23;;
7025;SDS011;3554;42.132;24.786;2022-08-19T08:01:38;6.53;;;6.00;;
7025;SDS011;3554;42.132;24.786;2022-08-19T08:04:06;6.13;;;5.53;;
7025;SDS011;3554;42.132;24.786;2022-08-19T08:06:50;6.50;;;5.77;;
7025;SDS011;3554;42.132;24.786;2022-08-19T08:09:37;9.80;;;6.27;;
7025;SDS011;3554;42.132;24.786;2022-08-19T08:12:07;11.93;;;6.60;;
7025;SDS011;3554;42.132;24.786;2022-08-19T08:14:37;7.57;;;6.00;;
7025;SDS011;3554;42.132;24.786;2022-08-19T08:17:06;7.07;;;6.37;;
7025;SDS011;3554;42.132;24.786;2022-08-19T08:19:34;6.40;;;5.63;;
7025;SDS011;3554;42.132;24.786;2022-08-19T08:22:01;7.30;;;6.60;;
7025;SDS011;3554;42.132;24.786;2022-08-19T08:24:31;5.97;;;5.57;;
7025;SDS011;3554;42.132;24.786;2022-08-19T08:27:00;14.27;;;6.00;;
7025;SDS011;3554;42.132;24.786;2022-08-19T08:29:29;8.23;;;5.67;;
7025;SDS011;3554;42.132;24.786;2022-08-19T08:31:58;5.90;;;5.40;;
7025;SDS011;3554;42.132;24.786;2022-08-19T08:34:25;6.63;;;5.60;;
7025;SDS011;3554;42.132;24.786;2022-08-19T08:36:52;5.43;;;5.00;;
7025;SDS011;3554;42.132;24.786;2022-08-19T08:39:19;5.00;;;4.70;;
7025;SDS011;3554;42.132;24.786;2022-08-19T08:41:50;5.90;;;5.50;;
7025;SDS011;3554;42.132;24.786;2022-08-19T08:44:27;5.73;;;5.20;;
7025;SDS011;3554;42.132;24.786;2022-08-19T08:47:09;7.05;;;6.43;;
7025;SDS011;3554;42.132;24.786;2022-08-19T08:49:43;6.40;;;5.70;;
7025;SDS011;3554;42.132;24.786;2022-08-19T08:52:15;6.68;;;6.07;;
7025;SDS011;3554;42.132;24.786;2022-08-19T08:54:47;5.45;;;5.15;;
7025;SDS011;3554;42.132;24.786;2022-08-19T08:57:24;6.35;;;5.93;;
7025;SDS011;3554;42.132;24.786;2022-08-19T08:59:55;5.78;;;5.38;;
7025;SDS011;3554;42.132;24.786;2022-08-19T09:02:24;5.95;;;5.65;;
7025;SDS011;3554;42.132;24.786;2022-08-19T09:04:51;6.05;;;5.45;;
7025;SDS011;3554;42.132;24.786;2022-08-19T09:07:22;5.93;;;5.50;;
7025;SDS011;3554;42.132;24.786;2022-08-19T09:09:58;7.65;;;6.63;;
7025;SDS011;3554;42.132;24.786;2022-08-19T09:12:34;5.82;;;5.43;;
7025;SDS011;3554;42.132;24.786;2022-08-19T09:15:13;6.35;;;5.88;;
7025;SDS011;3554;42.132;24.786;2022-08-19T09:17:41;10.02;;;6.53;;
7025;SDS011;3554;42.132;24.786;2022-08-19T09:20:14;11.65;;;6.72;;
7025;SDS011;3554;42.132;24.786;2022-08-19T09:22:45;6.03;;;5.63;;
7025;SDS011;3554;42.132;24.786;2022-08-19T09:25:14;6.40;;;6.00;;
7025;SDS011;3554;42.132;24.786;2022-08-19T09:27:43;7.45;;;5.47;;
7025;SDS011;3554;42.132;24.786;2022-08-19T09:30:14;6.65;;;6.10;;
7025;SDS011;3554;42.132;24.786;2022-08-19T09:32:42;6.07;;;5.68;;
7025;SDS011;3554;42.132;24.786;2022-08-19T09:35:10;6.75;;;6.28;;
7025;SDS011;3554;42.132;24.786;2022-08-19T09:37:37;6.13;;;5.57;;
7025;SDS011;3554;42.132;24.786;2022-08-19T09:40:04;6.55;;;5.95;;
7025;SDS011;3554;42.132;24.786;2022-08-19T09:42:32;5.70;;;5.40;;
7025;SDS011;3554;42.132;24.786;2022-08-19T09:44:59;6.03;;;5.57;;
7025;SDS011;3554;42.132;24.786;2022-08-19T09:47:28;11.55;;;5.82;;
7025;SDS011;3554;42.132;24.786;2022-08-19T09:49:55;5.80;;;5.45;;
7025;SDS011;3554;42.132;24.786;2022-08-19T09:52:22;5.85;;;5.63;;
7025;SDS011;3554;42.132;24.786;2022-08-19T09:54:51;7.07;;;5.80;;
7025;SDS011;3554;42.132;24.786;2022-08-19T09:57:18;6.05;;;5.40;;
7025;SDS011;3554;42.132;24.786;2022-08-19T09:59:45;5.32;;;4.97;;
7025;SDS011;3554;42.132;24.786;2022-08-19T10:02:12;5.47;;;5.15;;
7025;SDS011;3554;42.132;24.786;2022-08-19T10:04:40;5.80;;;5.50;;
7025;SDS011;3554;42.132;24.786;2022-08-19T10:07:24;5.60;;;5.30;;
7025;SDS011;3554;42.132;24.786;2022-08-19T10:09:51;6.15;;;5.57;;
7025;SDS011;3554;42.132;24.786;2022-08-19T10:12:19;5.90;;;5.63;;
7025;SDS011;3554;42.132;24.786;2022-08-19T10:14:46;6.13;;;5.75;;
7025;SDS011;3554;42.132;24.786;2022-08-19T10:17:13;5.88;;;5.55;;
7025;SDS011;3554;42.132;24.786;2022-08-19T10:19:41;6.22;;;5.70;;
7025;SDS011;3554;42.132;24.786;2022-08-19T10:22:08;5.82;;;5.35;;
7025;SDS011;3554;42.132;24.786;2022-08-19T10:24:39;7.88;;;6.05;;
7025;SDS011;3554;42.132;24.786;2022-08-19T10:27:07;5.93;;;5.72;;
7025;SDS011;3554;42.132;24.786;2022-08-19T10:29:34;5.60;;;5.20;;
7025;SDS011;3554;42.132;24.786;2022-08-19T10:32:02;5.88;;;5.30;;
7025;SDS011;3554;42.132;24.786;2022-08-19T10:34:31;5.85;;;5.55;;
7025;SDS011;3554;42.132;24.786;2022-08-19T10:36:59;6.88;;;6.25;;
7025;SDS011;3554;42.132;24.786;2022-08-19T10:39:26;5.68;;;5.38;;
7025;SDS011;3554;42.132;24.786;2022-08-19T10:41:55;6.63;;;6.07;;
7025;SDS011;3554;42.132;24.786;2022-08-19T10:44:22;7.97;;;6.30;;
7025;SDS011;3554;42.132;24.786;2022-08-19T10:46:49;5.88;;;5.50;;
7025;SDS011;3554;42.132;24.786;2022-08-19T10:49:17;5.45;;;5.15;;
7025;SDS011;3554;42.132;24.786;2022-08-19T10:51:45;5.22;;;5.00;;
7025;SDS011;3554;42.132;24.786;2022-08-19T10:54:32;6.35;;;5.60;;
7025;SDS011;3554;42.132;24.786;2022-08-19T10:57:16;4.85;;;4.50;;
7025;SDS011;3554;42.132;24.786;2022-08-19T10:59:43;5.32;;;4.93;;
7025;SDS011;3554;42.132;24.786;2022-08-19T11:02:10;4.82;;;4.60;;
7025;SDS011;3554;42.132;24.786;2022-08-19T11:04:38;5.20;;;5.00;;
7025;SDS011;3554;42.132;24.786;2022-08-19T11:07:06;7.25;;;4.93;;
7025;SDS011;3554;42.132;24.786;2022-08-19T11:09:38;5.30;;;4.97;;
7025;SDS011;3554;42.132;24.786;2022-08-19T11:12:07;5.68;;;5.20;;
7025;SDS011;3554;42.132;24.786;2022-08-19T11:14:34;6.65;;;5.30;;
7025;SDS011;3554;42.132;24.786;2022-08-19T11:17:02;6.07;;;5.68;;
7025;SDS011;3554;42.132;24.786;2022-08-19T11:19:31;5.22;;;5.03;;
7025;SDS011;3554;42.132;24.786;2022-08-19T11:21:59;5.10;;;4.80;;
7025;SDS011;3554;42.132;24.786;2022-08-19T11:24:29;5.28;;;4.97;;
7025;SDS011;3554;42.132;24.786;2022-08-19T11:27:02;5.05;;;4.78;;
7025;SDS011;3554;42.132;24.786;2022-08-19T11:29:31;6.32;;;4.22;;
7025;SDS011;3554;42.132;24.786;2022-08-19T11:31:59;5.95;;;5.25;;
7025;SDS011;3554;42.132;24.786;2022-08-19T11:34:29;4.72;;;4.43;;
7025;SDS011;3554;42.132;24.786;2022-08-19T11:36:57;5.32;;;4.93;;
7025;SDS011;3554;42.132;24.786;2022-08-19T11:39:25;5.30;;;5.10;;
7025;SDS011;3554;42.132;24.786;2022-08-19T11:41:53;4.60;;;4.40;;
7025;SDS011;3554;42.132;24.786;2022-08-19T11:44:22;4.85;;;4.55;;
7025;SDS011;3554;42.132;24.786;2022-08-19T11:46:49;5.68;;;5.25;;
7025;SDS011;3554;42.132;24.786;2022-08-19T11:49:17;5.20;;;4.85;;
7025;SDS011;3554;42.132;24.786;2022-08-19T11:51:45;5.50;;;5.10;;
7025;SDS011;3554;42.132;24.786;2022-08-19T11:54:12;6.28;;;4.55;;
7025;SDS011;3554;42.132;24.786;2022-08-19T11:56:41;4.80;;;4.60;;
7025;SDS011;3554;42.132;24.786;2022-08-19T11:59:09;5.40;;;5.10;;
7025;SDS011;3554;42.132;24.786;2022-08-19T12:01:37;5.40;;;4.90;;
7025;SDS011;3554;42.132;24.786;2022-08-19T12:04:06;5.90;;;5.10;;
7025;SDS011;3554;42.132;24.786;2022-08-19T12:06:33;5.75;;;4.95;;
7025;SDS011;3554;42.132;24.786;2022-08-19T12:09:01;4.50;;;4.20;;
7025;SDS011;3554;42.132;24.786;2022-08-19T12:11:30;5.40;;;4.90;;
7025;SDS011;3554;42.132;24.786;2022-08-19T12:13:57;5.43;;;4.95;;
7025;SDS011;3554;42.132;24.786;2022-08-19T12:16:25;6.13;;;5.63;;
7025;SDS011;3554;42.132;24.786;2022-08-19T12:18:55;5.20;;;5.00;;
7025;SDS011;3554;42.132;24.786;2022-08-19T12:21:24;5.30;;;5.00;;
7025;SDS011;3554;42.132;24.786;2022-08-19T12:23:54;5.63;;;5.25;;
7025;SDS011;3554;42.132;24.786;2022-08-19T12:26:22;5.72;;;5.30;;
7025;SDS011;3554;42.132;24.786;2022-08-19T12:28:49;5.53;;;5.13;;
7025;SDS011;3554;42.132;24.786;2022-08-19T12:31:16;5.32;;;4.93;;
7025;SDS011;3554;42.132;24.786;2022-08-19T12:33:45;9.88;;;5.60;;
7025;SDS011;3554;42.132;24.786;2022-08-19T12:36:15;5.43;;;5.13;;
7025;SDS011;3554;42.132;24.786;2022-08-19T12:38:42;11.43;;;5.57;;
7025;SDS011;3554;42.132;24.786;2022-08-19T12:41:11;5.43;;;5.00;;
7025;SDS011;3554;42.132;24.786;2022-08-19T12:43:38;4.95;;;4.70;;
7025;SDS011;3554;42.132;24.786;2022-08-19T12:46:06;5.68;;;4.85;;
7025;SDS011;3554;42.132;24.786;2022-08-19T12:48:33;5.40;;;4.90;;
7025;SDS011;3554;42.132;24.786;2022-08-19T12:51:00;5.22;;;4.93;;
7025;SDS011;3554;42.132;24.786;2022-08-19T12:53:34;5.97;;;5.47;;
7025;SDS011;3554;42.132;24.786;2022-08-19T12:56:02;6.57;;;5.20;;
7025;SDS011;3554;42.132;24.786;2022-08-19T12:58:30;6.75;;;5.05;;
7025;SDS011;3554;42.132;24.786;2022-08-19T13:00:59;5.20;;;4.90;;
7025;SDS011;3554;42.132;24.786;2022-08-19T13:03:31;5.80;;;5.45;;
7025;SDS011;3554;42.132;24.786;2022-08-19T13:05:58;5.60;;;5.20;;
7025;SDS011;3554;42.132;24.786;2022-08-19T13:08:25;5.65;;;5.32;;
7025;SDS011;3554;42.132;24.786;2022-08-19T13:10:53;6.25;;;5.10;;
7025;SDS011;3554;42.132;24.786;2022-08-19T13:13:20;5.70;;;5.32;;
7025;SDS011;3554;42.132;24.786;2022-08-19T13:15:47;4.95;;;4.75;;
7025;SDS011;3554;42.132;24.786;2022-08-19T13:18:14;5.88;;;5.35;;
7025;SDS011;3554;42.132;24.786;2022-08-19T13:20:41;5.88;;;5.03;;
7025;SDS011;3554;42.132;24.786;2022-08-19T13:23:08;6.03;;;5.18;;
7025;SDS011;3554;42.132;24.786;2022-08-19T13:25:35;7.60;;;5.55;;
7025;SDS011;3554;42.132;24.786;2022-08-19T13:28:04;5.68;;;5.18;;
7025;SDS011;3554;42.132;24.786;2022-08-19T13:30:31;5.15;;;4.75;;
7025;SDS011;3554;42.132;24.786;2022-08-19T13:33:16;5.57;;;5.22;;
7025;SDS011;3554;42.132;24.786;2022-08-19T13:35:45;6.15;;;5.20;;
7025;SDS011;3554;42.132;24.786;2022-08-19T13:38:15;7.03;;;5.60;;
7025;SDS011;3554;42.132;24.786;2022-08-19T13:40:42;5.10;;;4.90;;
7025;SDS011;3554;42.132;24.786;2022-08-19T13:43:11;5.57;;;5.28;;
7025;SDS011;3554;42.132;24.786;2022-08-19T13:45:39;9.75;;;4.80;;
7025;SDS011;3554;42.132;24.786;2022-08-19T13:48:06;4.95;;;4.65;;
7025;SDS011;3554;42.132;24.786;2022-08-19T13:50:35;5.60;;;5.28;;
7025;SDS011;3554;42.132;24.786;2022-08-19T13:53:05;6.03;;;5.72;;
7025;SDS011;3554;42.132;24.786;2022-08-19T13:55:32;5.32;;;4.97;;
7025;SDS011;3554;42.132;24.786;2022-08-19T13:57:59;5.65;;;5.13;;
7025;SDS011;3554;42.132;24.786;2022-08-19T14:00:31;4.80;;;4.50;;
7025;SDS011;3554;42.132;24.786;2022-08-19T14:02:59;7.25;;;5.03;;
7025;SDS011;3554;42.132;24.786;2022-08-19T14:05:27;5.38;;;5.13;;
7025;SDS011;3554;42.132;24.786;2022-08-19T14:07:55;4.85;;;4.60;;
7025;SDS011;3554;42.132;24.786;2022-08-19T14:10:22;5.38;;;5.07;;
7025;SDS011;3554;42.132;24.786;2022-08-19T14:12:52;5.07;;;4.78;;
7025;SDS011;3554;42.132;24.786;2022-08-19T14:15:20;10.68;;;5.22;;
7025;SDS011;3554;42.132;24.786;2022-08-19T14:17:49;5.53;;;5.15;;
7025;SDS011;3554;42.132;24.786;2022-08-19T14:20:17;5.45;;;4.95;;
7025;SDS011;3554;42.132;24.786;2022-08-19T14:22:44;5.20;;;4.85;;
7025;SDS011;3554;42.132;24.786;2022-08-19T14:25:13;4.88;;;4.68;;
7025;SDS011;3554;42.132;24.786;2022-08-19T14:27:42;5.53;;;4.88;;
7025;SDS011;3554;42.132;24.786;2022-08-19T14:30:10;5.35;;;4.97;;
7025;SDS011;3554;42.132;24.786;2022-08-19T14:32:39;5.07;;;4.82;;
7025;SDS011;3554;42.132;24.786;2022-08-19T14:35:09;5.15;;;4.75;;
7025;SDS011;3554;42.132;24.786;2022-08-19T14:37:39;5.30;;;5.10;;
7025;SDS011;3554;42.132;24.786;2022-08-19T14:40:06;5.47;;;5.18;;
7025;SDS011;3554;42.132;24.786;2022-08-19T14:42:34;5.28;;;4.90;;
7025;SDS011;3554;42.132;24.786;2022-08-19T14:45:02;4.88;;;4.50;;
7025;SDS011;3554;42.132;24.786;2022-08-19T14:47:31;5.00;;;4.78;;
7025;SDS011;3554;42.132;24.786;2022-08-19T14:49:58;4.85;;;4.50;;
7025;SDS011;3554;42.132;24.786;2022-08-19T14:52:26;5.07;;;4.63;;
7025;SDS011;3554;42.132;24.786;2022-08-19T14:54:53;4.70;;;4.50;;
7025;SDS011;3554;42.132;24.786;2022-08-19T14:57:20;5.28;;;4.88;;
7025;SDS011;3554;42.132;24.786;2022-08-19T14:59:47;5.57;;;5.10;;
7025;SDS011;3554;42.132;24.786;2022-08-19T15:02:14;5.30;;;5.03;;
7025;SDS011;3554;42.132;24.786;2022-08-19T15:04:41;5.95;;;5.38;;